Hauptseite
METAR-TAF:

METAR-TAF

Flughäfen :

Fliegerhorst Ingolstadt/Manching

Ingolstadt, Deutschland

Breite: 48-43N, Länge: 011-32E, Höhe: 367 m

Beobachtung

Neuester Wetterbericht von vor 11 Minuten, um 04:00 UTC
Wind 3 kt aus Nord
Temperatur 7°C
Luftfeuchtigkeit 93%
Luftdruck 1024 hPa
Sichtweite: 0800 m
Geschlossene Wolkendecke in der Höhe von 100 ft
Nebel

METAR: ETSI 180400Z 35003KT 0800 R25/3100D FG OVC001 07/06 Q1024 RED

Zeit: 06:11 (04:11 UTC)


TAF: fehlend

Wetterbeobachtungen und Prognosen von mehr als 4000 Flughäfen (METAR und TAF Bericht).

Die verfügbaren Stationen werden durch gelbe und rote Markierungen auf der Karte dargestellt.

Führen Sie die Maus auf sie, um den Namen der Station zu sehen.

Darauf klicken, um die Beobachtung von Wetterbeobachtungen und Prognosen zu sehen.

Um die Karte zu ändern : klicken Sie auf den grünen Tasten mit einem schwarzen Kreuz Zum Vergrößern, auf den grünen Button mit einem Gedankenstrich zu verkleinern, oder auf die grünen Pfeile für benachbarte Karten.


METAR-TAF: